sensor_id;sensor_type;location;lat;lon;timestamp;P1;durP1;ratioP1;P2;durP2;ratioP2
51270;SDS011;37744;50.960;4.136;2023-04-25T00:01:34;14.15;;;5.43;;
51270;SDS011;37744;50.960;4.136;2023-04-25T00:04:01;12.93;;;5.43;;
51270;SDS011;37744;50.960;4.136;2023-04-25T00:06:28;20.83;;;5.63;;
51270;SDS011;37744;50.960;4.136;2023-04-25T00:08:55;16.38;;;5.22;;
51270;SDS011;37744;50.960;4.136;2023-04-25T00:11:21;22.38;;;5.07;;
51270;SDS011;37744;50.960;4.136;2023-04-25T00:13:46;23.20;;;5.10;;
51270;SDS011;37744;50.960;4.136;2023-04-25T00:16:13;28.00;;;5.88;;
51270;SDS011;37744;50.960;4.136;2023-04-25T00:18:41;21.67;;;5.45;;
51270;SDS011;37744;50.960;4.136;2023-04-25T00:21:07;22.33;;;5.50;;
51270;SDS011;37744;50.960;4.136;2023-04-25T00:23:32;19.80;;;5.65;;
51270;SDS011;37744;50.960;4.136;2023-04-25T00:25:57;23.67;;;5.18;;
51270;SDS011;37744;50.960;4.136;2023-04-25T00:28:23;18.80;;;5.47;;
51270;SDS011;37744;50.960;4.136;2023-04-25T00:30:48;20.42;;;5.22;;
51270;SDS011;37744;50.960;4.136;2023-04-25T00:33:13;25.63;;;5.90;;
51270;SDS011;37744;50.960;4.136;2023-04-25T00:35:39;22.05;;;5.40;;
51270;SDS011;37744;50.960;4.136;2023-04-25T00:38:04;22.52;;;4.97;;
51270;SDS011;37744;50.960;4.136;2023-04-25T00:40:29;16.33;;;5.13;;
51270;SDS011;37744;50.960;4.136;2023-04-25T00:42:55;24.48;;;6.30;;
51270;SDS011;37744;50.960;4.136;2023-04-25T00:45:20;20.63;;;5.65;;
51270;SDS011;37744;50.960;4.136;2023-04-25T00:47:46;21.83;;;5.53;;
51270;SDS011;37744;50.960;4.136;2023-04-25T00:50:12;17.02;;;4.70;;
51270;SDS011;37744;50.960;4.136;2023-04-25T00:52:38;20.63;;;5.55;;
51270;SDS011;37744;50.960;4.136;2023-04-25T00:55:05;25.50;;;5.72;;
51270;SDS011;37744;50.960;4.136;2023-04-25T00:57:31;24.83;;;5.57;;
51270;SDS011;37744;50.960;4.136;2023-04-25T00:59:57;28.33;;;5.50;;
51270;SDS011;37744;50.960;4.136;2023-04-25T01:02:22;19.85;;;5.28;;
51270;SDS011;37744;50.960;4.136;2023-04-25T01:04:49;22.25;;;5.10;;
51270;SDS011;37744;50.960;4.136;2023-04-25T01:07:14;20.42;;;5.30;;
51270;SDS011;37744;50.960;4.136;2023-04-25T01:09:41;21.77;;;5.75;;
51270;SDS011;37744;50.960;4.136;2023-04-25T01:12:06;26.77;;;6.03;;
51270;SDS011;37744;50.960;4.136;2023-04-25T01:14:32;19.52;;;5.20;;
51270;SDS011;37744;50.960;4.136;2023-04-25T01:16:58;17.67;;;5.43;;
51270;SDS011;37744;50.960;4.136;2023-04-25T01:19:23;16.65;;;4.70;;
51270;SDS011;37744;50.960;4.136;2023-04-25T01:21:49;23.80;;;6.07;;
51270;SDS011;37744;50.960;4.136;2023-04-25T01:24:15;20.90;;;5.25;;
51270;SDS011;37744;50.960;4.136;2023-04-25T01:26:41;18.92;;;5.20;;
51270;SDS011;37744;50.960;4.136;2023-04-25T01:29:10;17.90;;;5.90;;
51270;SDS011;37744;50.960;4.136;2023-04-25T01:31:35;23.95;;;5.40;;
51270;SDS011;37744;50.960;4.136;2023-04-25T01:34:01;23.08;;;5.30;;
51270;SDS011;37744;50.960;4.136;2023-04-25T01:36:26;20.85;;;4.75;;
51270;SDS011;37744;50.960;4.136;2023-04-25T01:38:52;27.23;;;5.90;;
51270;SDS011;37744;50.960;4.136;2023-04-25T01:41:17;19.20;;;5.10;;
51270;SDS011;37744;50.960;4.136;2023-04-25T01:43:43;23.40;;;5.68;;
51270;SDS011;37744;50.960;4.136;2023-04-25T01:46:09;17.75;;;5.32;;
51270;SDS011;37744;50.960;4.136;2023-04-25T01:48:35;31.60;;;5.72;;
51270;SDS011;37744;50.960;4.136;2023-04-25T01:51:01;20.15;;;5.57;;
51270;SDS011;37744;50.960;4.136;2023-04-25T01:53:26;25.90;;;5.45;;
51270;SDS011;37744;50.960;4.136;2023-04-25T01:55:51;20.45;;;5.82;;
51270;SDS011;37744;50.960;4.136;2023-04-25T01:58:17;27.85;;;6.07;;
51270;SDS011;37744;50.960;4.136;2023-04-25T02:00:42;21.90;;;5.38;;
51270;SDS011;37744;50.960;4.136;2023-04-25T02:03:07;27.80;;;5.82;;
51270;SDS011;37744;50.960;4.136;2023-04-25T02:05:34;22.58;;;5.75;;
51270;SDS011;37744;50.960;4.136;2023-04-25T02:07:59;22.73;;;5.00;;
51270;SDS011;37744;50.960;4.136;2023-04-25T02:10:24;18.52;;;5.13;;
51270;SDS011;37744;50.960;4.136;2023-04-25T02:12:50;19.38;;;5.13;;
51270;SDS011;37744;50.960;4.136;2023-04-25T02:15:15;17.75;;;4.97;;
51270;SDS011;37744;50.960;4.136;2023-04-25T02:17:41;16.20;;;5.18;;
51270;SDS011;37744;50.960;4.136;2023-04-25T02:20:07;19.88;;;5.25;;
51270;SDS011;37744;50.960;4.136;2023-04-25T02:22:32;21.65;;;5.55;;
51270;SDS011;37744;50.960;4.136;2023-04-25T02:24:59;22.38;;;5.85;;
51270;SDS011;37744;50.960;4.136;2023-04-25T02:27:24;19.33;;;5.40;;
51270;SDS011;37744;50.960;4.136;2023-04-25T02:29:49;25.02;;;5.15;;
51270;SDS011;37744;50.960;4.136;2023-04-25T02:32:15;21.70;;;5.25;;
51270;SDS011;37744;50.960;4.136;2023-04-25T02:34:40;25.77;;;4.93;;
51270;SDS011;37744;50.960;4.136;2023-04-25T02:37:06;28.10;;;6.28;;
51270;SDS011;37744;50.960;4.136;2023-04-25T02:39:31;21.00;;;6.03;;
51270;SDS011;37744;50.960;4.136;2023-04-25T02:41:56;20.02;;;5.65;;
51270;SDS011;37744;50.960;4.136;2023-04-25T02:44:21;16.08;;;5.50;;
51270;SDS011;37744;50.960;4.136;2023-04-25T02:46:47;20.52;;;6.03;;
51270;SDS011;37744;50.960;4.136;2023-04-25T02:49:12;22.92;;;6.00;;
51270;SDS011;37744;50.960;4.136;2023-04-25T02:51:37;20.70;;;5.25;;
51270;SDS011;37744;50.960;4.136;2023-04-25T02:54:03;20.92;;;5.07;;
51270;SDS011;37744;50.960;4.136;2023-04-25T02:56:28;28.67;;;5.40;;
51270;SDS011;37744;50.960;4.136;2023-04-25T02:58:53;21.85;;;4.90;;
51270;SDS011;37744;50.960;4.136;2023-04-25T03:01:19;19.85;;;5.43;;
51270;SDS011;37744;50.960;4.136;2023-04-25T03:03:44;23.10;;;5.47;;
51270;SDS011;37744;50.960;4.136;2023-04-25T03:06:10;18.63;;;4.95;;
51270;SDS011;37744;50.960;4.136;2023-04-25T03:08:35;21.92;;;5.68;;
51270;SDS011;37744;50.960;4.136;2023-04-25T03:11:00;16.67;;;5.10;;
51270;SDS011;37744;50.960;4.136;2023-04-25T03:13:26;23.77;;;6.22;;
51270;SDS011;37744;50.960;4.136;2023-04-25T03:15:53;24.45;;;5.95;;
51270;SDS011;37744;50.960;4.136;2023-04-25T03:18:18;18.10;;;5.60;;
51270;SDS011;37744;50.960;4.136;2023-04-25T03:20:44;17.52;;;5.15;;
51270;SDS011;37744;50.960;4.136;2023-04-25T03:23:09;23.15;;;5.18;;
51270;SDS011;37744;50.960;4.136;2023-04-25T03:25:34;17.98;;;5.53;;
51270;SDS011;37744;50.960;4.136;2023-04-25T03:28:00;19.77;;;5.53;;
51270;SDS011;37744;50.960;4.136;2023-04-25T03:30:25;23.35;;;5.57;;
51270;SDS011;37744;50.960;4.136;2023-04-25T03:32:50;24.52;;;6.25;;
51270;SDS011;37744;50.960;4.136;2023-04-25T03:35:16;19.15;;;5.22;;
51270;SDS011;37744;50.960;4.136;2023-04-25T03:37:41;28.55;;;6.05;;
51270;SDS011;37744;50.960;4.136;2023-04-25T03:40:10;26.88;;;4.95;;
51270;SDS011;37744;50.960;4.136;2023-04-25T03:42:35;24.70;;;5.60;;
51270;SDS011;37744;50.960;4.136;2023-04-25T03:45:01;20.27;;;5.00;;
51270;SDS011;37744;50.960;4.136;2023-04-25T03:47:26;23.10;;;6.25;;
51270;SDS011;37744;50.960;4.136;2023-04-25T03:49:51;16.98;;;5.25;;
51270;SDS011;37744;50.960;4.136;2023-04-25T03:52:17;17.83;;;5.20;;
51270;SDS011;37744;50.960;4.136;2023-04-25T03:54:42;29.80;;;6.32;;
51270;SDS011;37744;50.960;4.136;2023-04-25T03:57:07;26.42;;;6.43;;
51270;SDS011;37744;50.960;4.136;2023-04-25T03:59:33;18.77;;;5.30;;
51270;SDS011;37744;50.960;4.136;2023-04-25T04:01:58;25.65;;;5.90;;
51270;SDS011;37744;50.960;4.136;2023-04-25T04:04:23;21.30;;;5.28;;
51270;SDS011;37744;50.960;4.136;2023-04-25T04:06:49;22.92;;;5.80;;
51270;SDS011;37744;50.960;4.136;2023-04-25T04:09:14;26.00;;;5.65;;
51270;SDS011;37744;50.960;4.136;2023-04-25T04:11:40;21.30;;;5.32;;
51270;SDS011;37744;50.960;4.136;2023-04-25T04:14:07;28.95;;;5.20;;
51270;SDS011;37744;50.960;4.136;2023-04-25T04:16:32;21.65;;;4.53;;
51270;SDS011;37744;50.960;4.136;2023-04-25T04:18:58;20.17;;;5.05;;
51270;SDS011;37744;50.960;4.136;2023-04-25T04:21:24;15.90;;;4.85;;
51270;SDS011;37744;50.960;4.136;2023-04-25T04:23:50;19.08;;;5.00;;
51270;SDS011;37744;50.960;4.136;2023-04-25T04:26:16;16.88;;;5.30;;
51270;SDS011;37744;50.960;4.136;2023-04-25T04:28:42;15.70;;;4.05;;
51270;SDS011;37744;50.960;4.136;2023-04-25T04:31:10;17.25;;;5.22;;
51270;SDS011;37744;50.960;4.136;2023-04-25T04:33:35;11.82;;;3.80;;
51270;SDS011;37744;50.960;4.136;2023-04-25T04:36:02;18.38;;;5.53;;
51270;SDS011;37744;50.960;4.136;2023-04-25T04:38:28;15.38;;;4.40;;
51270;SDS011;37744;50.960;4.136;2023-04-25T04:40:55;16.73;;;4.18;;
51270;SDS011;37744;50.960;4.136;2023-04-25T04:43:22;17.73;;;4.15;;
51270;SDS011;37744;50.960;4.136;2023-04-25T04:45:48;13.43;;;4.13;;
51270;SDS011;37744;50.960;4.136;2023-04-25T04:48:14;13.43;;;3.80;;
51270;SDS011;37744;50.960;4.136;2023-04-25T04:50:39;10.77;;;3.72;;
51270;SDS011;37744;50.960;4.136;2023-04-25T04:53:05;15.77;;;3.70;;
51270;SDS011;37744;50.960;4.136;2023-04-25T04:55:30;13.68;;;4.38;;
51270;SDS011;37744;50.960;4.136;2023-04-25T04:57:56;13.38;;;3.95;;
51270;SDS011;37744;50.960;4.136;2023-04-25T05:00:21;11.77;;;3.95;;
51270;SDS011;37744;50.960;4.136;2023-04-25T05:02:47;14.13;;;4.13;;
51270;SDS011;37744;50.960;4.136;2023-04-25T05:05:13;10.00;;;3.92;;
51270;SDS011;37744;50.960;4.136;2023-04-25T05:07:39;12.02;;;3.80;;
51270;SDS011;37744;50.960;4.136;2023-04-25T05:10:05;12.90;;;3.33;;
51270;SDS011;37744;50.960;4.136;2023-04-25T05:12:30;11.77;;;3.78;;
51270;SDS011;37744;50.960;4.136;2023-04-25T05:14:56;18.63;;;4.53;;
51270;SDS011;37744;50.960;4.136;2023-04-25T05:17:23;12.95;;;3.70;;
51270;SDS011;37744;50.960;4.136;2023-04-25T05:19:48;13.05;;;3.75;;
51270;SDS011;37744;50.960;4.136;2023-04-25T05:22:14;12.65;;;3.95;;
51270;SDS011;37744;50.960;4.136;2023-04-25T05:24:40;16.52;;;4.15;;
51270;SDS011;37744;50.960;4.136;2023-04-25T05:27:05;10.63;;;3.50;;
51270;SDS011;37744;50.960;4.136;2023-04-25T05:29:32;13.32;;;3.70;;
51270;SDS011;37744;50.960;4.136;2023-04-25T05:31:57;21.05;;;4.22;;
51270;SDS011;37744;50.960;4.136;2023-04-25T05:34:23;16.20;;;4.10;;
51270;SDS011;37744;50.960;4.136;2023-04-25T05:36:48;14.13;;;3.63;;
51270;SDS011;37744;50.960;4.136;2023-04-25T05:39:15;11.82;;;3.80;;
51270;SDS011;37744;50.960;4.136;2023-04-25T05:41:40;12.25;;;4.18;;
51270;SDS011;37744;50.960;4.136;2023-04-25T05:44:05;12.43;;;4.07;;
51270;SDS011;37744;50.960;4.136;2023-04-25T05:46:31;18.45;;;4.20;;
51270;SDS011;37744;50.960;4.136;2023-04-25T05:48:56;15.13;;;4.13;;
51270;SDS011;37744;50.960;4.136;2023-04-25T05:51:22;15.02;;;4.15;;
51270;SDS011;37744;50.960;4.136;2023-04-25T05:53:48;23.85;;;4.88;;
51270;SDS011;37744;50.960;4.136;2023-04-25T05:56:13;13.32;;;4.07;;
51270;SDS011;37744;50.960;4.136;2023-04-25T05:58:38;16.10;;;3.63;;
51270;SDS011;37744;50.960;4.136;2023-04-25T06:01:04;14.40;;;4.20;;
51270;SDS011;37744;50.960;4.136;2023-04-25T06:03:29;12.23;;;3.58;;
51270;SDS011;37744;50.960;4.136;2023-04-25T06:05:55;16.65;;;4.60;;
51270;SDS011;37744;50.960;4.136;2023-04-25T06:08:20;18.58;;;4.43;;
51270;SDS011;37744;50.960;4.136;2023-04-25T06:10:45;12.38;;;4.20;;
51270;SDS011;37744;50.960;4.136;2023-04-25T06:13:12;13.27;;;4.05;;
51270;SDS011;37744;50.960;4.136;2023-04-25T06:15:37;16.40;;;4.72;;
51270;SDS011;37744;50.960;4.136;2023-04-25T06:18:02;15.43;;;4.25;;
51270;SDS011;37744;50.960;4.136;2023-04-25T06:20:28;15.65;;;4.85;;
51270;SDS011;37744;50.960;4.136;2023-04-25T06:22:53;16.88;;;4.25;;
51270;SDS011;37744;50.960;4.136;2023-04-25T06:25:18;17.70;;;4.22;;
51270;SDS011;37744;50.960;4.136;2023-04-25T06:27:44;14.98;;;4.00;;
51270;SDS011;37744;50.960;4.136;2023-04-25T06:30:10;12.68;;;3.97;;
51270;SDS011;37744;50.960;4.136;2023-04-25T06:32:38;14.82;;;4.72;;
51270;SDS011;37744;50.960;4.136;2023-04-25T06:35:04;10.15;;;3.65;;
51270;SDS011;37744;50.960;4.136;2023-04-25T06:37:29;13.85;;;4.05;;
51270;SDS011;37744;50.960;4.136;2023-04-25T06:39:55;19.65;;;3.60;;
51270;SDS011;37744;50.960;4.136;2023-04-25T06:42:20;13.05;;;4.18;;
51270;SDS011;37744;50.960;4.136;2023-04-25T06:44:46;14.57;;;4.18;;
51270;SDS011;37744;50.960;4.136;2023-04-25T06:47:11;12.75;;;3.92;;
51270;SDS011;37744;50.960;4.136;2023-04-25T06:49:37;14.45;;;3.78;;
51270;SDS011;37744;50.960;4.136;2023-04-25T06:52:02;13.05;;;3.35;;
51270;SDS011;37744;50.960;4.136;2023-04-25T06:54:28;10.82;;;3.58;;
51270;SDS011;37744;50.960;4.136;2023-04-25T06:56:55;16.85;;;4.03;;
51270;SDS011;37744;50.960;4.136;2023-04-25T06:59:20;11.18;;;3.30;;
51270;SDS011;37744;50.960;4.136;2023-04-25T07:01:47;14.00;;;3.67;;
51270;SDS011;37744;50.960;4.136;2023-04-25T07:04:12;11.52;;;3.50;;
51270;SDS011;37744;50.960;4.136;2023-04-25T07:06:37;11.27;;;3.30;;
51270;SDS011;37744;50.960;4.136;2023-04-25T07:09:08;9.00;;;2.97;;
51270;SDS011;37744;50.960;4.136;2023-04-25T07:11:34;12.85;;;2.92;;
51270;SDS011;37744;50.960;4.136;2023-04-25T07:14:01;15.65;;;4.60;;
51270;SDS011;37744;50.960;4.136;2023-04-25T07:16:26;13.43;;;3.45;;
51270;SDS011;37744;50.960;4.136;2023-04-25T07:18:51;10.60;;;3.22;;
51270;SDS011;37744;50.960;4.136;2023-04-25T07:21:17;16.48;;;3.30;;
51270;SDS011;37744;50.960;4.136;2023-04-25T07:23:42;13.50;;;2.80;;
51270;SDS011;37744;50.960;4.136;2023-04-25T07:26:07;9.40;;;2.97;;
51270;SDS011;37744;50.960;4.136;2023-04-25T07:28:33;6.25;;;2.40;;
51270;SDS011;37744;50.960;4.136;2023-04-25T07:30:58;13.07;;;3.00;;
51270;SDS011;37744;50.960;4.136;2023-04-25T07:33:23;11.68;;;3.00;;
51270;SDS011;37744;50.960;4.136;2023-04-25T07:35:49;10.30;;;2.85;;
51270;SDS011;37744;50.960;4.136;2023-04-25T07:38:15;12.02;;;3.00;;
51270;SDS011;37744;50.960;4.136;2023-04-25T07:40:40;15.73;;;3.08;;
51270;SDS011;37744;50.960;4.136;2023-04-25T07:43:05;12.68;;;2.97;;
51270;SDS011;37744;50.960;4.136;2023-04-25T07:45:31;12.95;;;3.00;;
51270;SDS011;37744;50.960;4.136;2023-04-25T07:47:56;11.00;;;3.50;;
51270;SDS011;37744;50.960;4.136;2023-04-25T07:50:21;9.07;;;3.47;;
51270;SDS011;37744;50.960;4.136;2023-04-25T07:52:46;8.45;;;2.13;;
51270;SDS011;37744;50.960;4.136;2023-04-25T07:55:12;10.85;;;2.35;;
51270;SDS011;37744;50.960;4.136;2023-04-25T07:57:37;11.80;;;2.00;;
51270;SDS011;37744;50.960;4.136;2023-04-25T08:00:03;8.18;;;2.42;;
51270;SDS011;37744;50.960;4.136;2023-04-25T08:02:30;9.65;;;2.53;;
51270;SDS011;37744;50.960;4.136;2023-04-25T08:04:55;8.48;;;2.30;;
51270;SDS011;37744;50.960;4.136;2023-04-25T08:07:20;12.02;;;2.17;;
51270;SDS011;37744;50.960;4.136;2023-04-25T08:09:46;6.75;;;2.05;;
51270;SDS011;37744;50.960;4.136;2023-04-25T08:12:12;9.10;;;2.35;;
51270;SDS011;37744;50.960;4.136;2023-04-25T08:14:38;10.50;;;2.05;;
51270;SDS011;37744;50.960;4.136;2023-04-25T08:17:04;12.00;;;2.22;;
51270;SDS011;37744;50.960;4.136;2023-04-25T08:19:30;8.55;;;2.72;;
51270;SDS011;37744;50.960;4.136;2023-04-25T08:21:56;6.78;;;2.10;;
51270;SDS011;37744;50.960;4.136;2023-04-25T08:24:21;12.32;;;2.03;;
51270;SDS011;37744;50.960;4.136;2023-04-25T08:26:48;17.45;;;2.47;;
51270;SDS011;37744;50.960;4.136;2023-04-25T08:29:14;10.95;;;2.40;;
51270;SDS011;37744;50.960;4.136;2023-04-25T08:31:40;9.02;;;1.90;;
51270;SDS011;37744;50.960;4.136;2023-04-25T08:34:05;8.50;;;1.95;;
51270;SDS011;37744;50.960;4.136;2023-04-25T08:36:31;9.45;;;2.30;;
51270;SDS011;37744;50.960;4.136;2023-04-25T08:38:57;8.52;;;2.10;;
51270;SDS011;37744;50.960;4.136;2023-04-25T08:41:23;13.07;;;2.20;;
51270;SDS011;37744;50.960;4.136;2023-04-25T08:43:49;10.27;;;1.98;;
51270;SDS011;37744;50.960;4.136;2023-04-25T08:46:17;9.48;;;2.08;;
51270;SDS011;37744;50.960;4.136;2023-04-25T08:48:43;13.77;;;2.22;;
51270;SDS011;37744;50.960;4.136;2023-04-25T08:51:09;8.82;;;1.75;;
51270;SDS011;37744;50.960;4.136;2023-04-25T08:53:36;7.47;;;1.45;;
51270;SDS011;37744;50.960;4.136;2023-04-25T08:56:01;8.82;;;2.42;;
51270;SDS011;37744;50.960;4.136;2023-04-25T08:58:28;9.68;;;2.00;;
51270;SDS011;37744;50.960;4.136;2023-04-25T09:00:53;10.48;;;2.08;;
51270;SDS011;37744;50.960;4.136;2023-04-25T09:03:19;9.73;;;1.95;;
51270;SDS011;37744;50.960;4.136;2023-04-25T09:05:44;9.43;;;2.35;;
51270;SDS011;37744;50.960;4.136;2023-04-25T09:08:09;7.57;;;1.70;;
51270;SDS011;37744;50.960;4.136;2023-04-25T09:10:35;7.22;;;1.70;;
51270;SDS011;37744;50.960;4.136;2023-04-25T09:13:08;4.88;;;1.45;;
51270;SDS011;37744;50.960;4.136;2023-04-25T09:15:50;5.13;;;1.45;;
51270;SDS011;37744;50.960;4.136;2023-04-25T09:20:48;12.93;;;1.85;;
51270;SDS011;37744;50.960;4.136;2023-04-25T09:23:14;6.30;;;1.65;;
51270;SDS011;37744;50.960;4.136;2023-04-25T09:25:39;4.22;;;1.60;;
51270;SDS011;37744;50.960;4.136;2023-04-25T09:28:05;5.10;;;1.33;;
51270;SDS011;37744;50.960;4.136;2023-04-25T09:30:31;5.85;;;0.90;;
51270;SDS011;37744;50.960;4.136;2023-04-25T09:32:57;5.15;;;1.52;;
51270;SDS011;37744;50.960;4.136;2023-04-25T09:35:28;3.78;;;1.20;;
51270;SDS011;37744;50.960;4.136;2023-04-25T09:37:53;6.50;;;1.15;;
51270;SDS011;37744;50.960;4.136;2023-04-25T09:40:19;4.15;;;1.17;;
51270;SDS011;37744;50.960;4.136;2023-04-25T09:42:45;5.95;;;1.50;;
51270;SDS011;37744;50.960;4.136;2023-04-25T09:45:12;3.65;;;1.20;;
51270;SDS011;37744;50.960;4.136;2023-04-25T09:47:38;3.42;;;1.40;;
51270;SDS011;37744;50.960;4.136;2023-04-25T09:50:04;4.88;;;1.48;;
51270;SDS011;37744;50.960;4.136;2023-04-25T09:52:38;5.80;;;1.27;;
51270;SDS011;37744;50.960;4.136;2023-04-25T09:55:03;7.40;;;1.50;;
51270;SDS011;37744;50.960;4.136;2023-04-25T09:57:29;6.35;;;1.55;;
51270;SDS011;37744;50.960;4.136;2023-04-25T09:59:55;3.35;;;1.35;;
51270;SDS011;37744;50.960;4.136;2023-04-25T10:02:21;5.05;;;1.27;;
51270;SDS011;37744;50.960;4.136;2023-04-25T10:04:48;8.80;;;1.67;;
51270;SDS011;37744;50.960;4.136;2023-04-25T10:07:14;8.07;;;1.33;;
51270;SDS011;37744;50.960;4.136;2023-04-25T10:09:40;6.50;;;1.77;;
51270;SDS011;37744;50.960;4.136;2023-04-25T10:12:05;8.32;;;2.10;;
51270;SDS011;37744;50.960;4.136;2023-04-25T10:14:31;8.13;;;2.60;;
51270;SDS011;37744;50.960;4.136;2023-04-25T10:16:59;9.20;;;2.15;;
51270;SDS011;37744;50.960;4.136;2023-04-25T10:19:26;6.75;;;1.90;;
51270;SDS011;37744;50.960;4.136;2023-04-25T10:21:52;8.82;;;2.45;;
51270;SDS011;37744;50.960;4.136;2023-04-25T10:24:19;6.40;;;1.73;;
51270;SDS011;37744;50.960;4.136;2023-04-25T10:26:45;6.80;;;1.63;;
51270;SDS011;37744;50.960;4.136;2023-04-25T10:29:11;9.82;;;2.05;;
51270;SDS011;37744;50.960;4.136;2023-04-25T10:31:47;6.82;;;1.55;;
51270;SDS011;37744;50.960;4.136;2023-04-25T10:34:12;5.38;;;1.80;;
51270;SDS011;37744;50.960;4.136;2023-04-25T10:36:38;9.75;;;1.52;;
51270;SDS011;37744;50.960;4.136;2023-04-25T10:39:06;4.82;;;1.77;;
51270;SDS011;37744;50.960;4.136;2023-04-25T10:41:33;9.43;;;1.70;;
51270;SDS011;37744;50.960;4.136;2023-04-25T10:44:10;6.13;;;2.22;;
51270;SDS011;37744;50.960;4.136;2023-04-25T10:46:35;4.97;;;2.08;;
51270;SDS011;37744;50.960;4.136;2023-04-25T10:49:01;6.65;;;1.80;;
51270;SDS011;37744;50.960;4.136;2023-04-25T10:51:27;7.43;;;1.95;;
51270;SDS011;37744;50.960;4.136;2023-04-25T10:53:57;5.32;;;1.48;;
51270;SDS011;37744;50.960;4.136;2023-04-25T10:56:23;3.92;;;1.83;;
51270;SDS011;37744;50.960;4.136;2023-04-25T10:58:49;5.70;;;2.00;;
51270;SDS011;37744;50.960;4.136;2023-04-25T11:01:15;3.75;;;1.65;;
51270;SDS011;37744;50.960;4.136;2023-04-25T11:03:44;6.18;;;2.65;;
51270;SDS011;37744;50.960;4.136;2023-04-25T11:06:34;4.78;;;1.42;;
51270;SDS011;37744;50.960;4.136;2023-04-25T11:08:56;7.45;;;2.70;;
51270;SDS011;37744;50.960;4.136;2023-04-25T11:11:23;6.22;;;1.92;;
51270;SDS011;37744;50.960;4.136;2023-04-25T11:13:49;6.40;;;1.83;;
51270;SDS011;37744;50.960;4.136;2023-04-25T11:16:16;4.80;;;1.58;;
51270;SDS011;37744;50.960;4.136;2023-04-25T11:18:42;9.05;;;1.92;;
51270;SDS011;37744;50.960;4.136;2023-04-25T11:21:09;4.32;;;1.90;;
51270;SDS011;37744;50.960;4.136;2023-04-25T11:23:34;3.95;;;1.67;;
51270;SDS011;37744;50.960;4.136;2023-04-25T11:26:00;14.52;;;5.50;;
51270;SDS011;37744;50.960;4.136;2023-04-25T11:28:26;7.50;;;1.90;;
51270;SDS011;37744;50.960;4.136;2023-04-25T11:30:52;8.88;;;1.60;;
51270;SDS011;37744;50.960;4.136;2023-04-25T11:33:17;8.02;;;1.52;;
51270;SDS011;37744;50.960;4.136;2023-04-25T11:35:43;2.22;;;1.10;;
51270;SDS011;37744;50.960;4.136;2023-04-25T11:38:08;5.55;;;1.70;;
51270;SDS011;37744;50.960;4.136;2023-04-25T11:40:35;7.80;;;1.75;;
51270;SDS011;37744;50.960;4.136;2023-04-25T11:43:00;5.68;;;1.42;;
51270;SDS011;37744;50.960;4.136;2023-04-25T11:45:26;4.60;;;1.10;;
51270;SDS011;37744;50.960;4.136;2023-04-25T11:47:52;5.13;;;1.17;;
51270;SDS011;37744;50.960;4.136;2023-04-25T11:50:18;3.40;;;0.80;;
51270;SDS011;37744;50.960;4.136;2023-04-25T11:52:45;2.80;;;0.88;;
51270;SDS011;37744;50.960;4.136;2023-04-25T11:57:39;5.05;;;1.08;;
51270;SDS011;37744;50.960;4.136;2023-04-25T12:00:10;4.38;;;1.30;;
51270;SDS011;37744;50.960;4.136;2023-04-25T12:02:40;5.40;;;1.60;;
51270;SDS011;37744;50.960;4.136;2023-04-25T12:05:06;5.38;;;1.25;;
51270;SDS011;37744;50.960;4.136;2023-04-25T12:07:34;2.70;;;1.00;;
51270;SDS011;37744;50.960;4.136;2023-04-25T12:10:03;4.18;;;1.40;;
51270;SDS011;37744;50.960;4.136;2023-04-25T12:12:32;4.10;;;1.40;;
51270;SDS011;37744;50.960;4.136;2023-04-25T12:15:07;8.25;;;1.38;;
51270;SDS011;37744;50.960;4.136;2023-04-25T12:17:33;2.95;;;1.25;;
51270;SDS011;37744;50.960;4.136;2023-04-25T12:19:59;7.18;;;1.38;;
51270;SDS011;37744;50.960;4.136;2023-04-25T12:22:24;5.38;;;1.35;;
51270;SDS011;37744;50.960;4.136;2023-04-25T12:24:50;5.95;;;1.30;;
51270;SDS011;37744;50.960;4.136;2023-04-25T12:27:16;7.05;;;1.50;;
51270;SDS011;37744;50.960;4.136;2023-04-25T12:29:49;7.53;;;2.30;;
51270;SDS011;37744;50.960;4.136;2023-04-25T12:32:16;5.68;;;1.77;;
51270;SDS011;37744;50.960;4.136;2023-04-25T12:34:42;8.98;;;2.70;;
51270;SDS011;37744;50.960;4.136;2023-04-25T12:37:08;16.92;;;4.00;;
51270;SDS011;37744;50.960;4.136;2023-04-25T12:39:34;10.48;;;3.50;;
51270;SDS011;37744;50.960;4.136;2023-04-25T12:41:59;9.43;;;2.50;;
51270;SDS011;37744;50.960;4.136;2023-04-25T12:44:25;14.77;;;5.43;;
51270;SDS011;37744;50.960;4.136;2023-04-25T12:46:51;8.80;;;2.20;;
51270;SDS011;37744;50.960;4.136;2023-04-25T12:49:16;13.75;;;5.40;;
51270;SDS011;37744;50.960;4.136;2023-04-25T12:51:42;18.70;;;5.80;;
51270;SDS011;37744;50.960;4.136;2023-04-25T12:54:08;7.38;;;2.17;;
51270;SDS011;37744;50.960;4.136;2023-04-25T12:56:35;14.00;;;3.95;;
51270;SDS011;37744;50.960;4.136;2023-04-25T12:59:02;14.93;;;5.03;;
51270;SDS011;37744;50.960;4.136;2023-04-25T13:01:28;6.72;;;1.88;;
51270;SDS011;37744;50.960;4.136;2023-04-25T13:03:53;6.07;;;2.10;;
51270;SDS011;37744;50.960;4.136;2023-04-25T13:06:19;4.70;;;1.30;;
51270;SDS011;37744;50.960;4.136;2023-04-25T13:08:45;6.03;;;1.30;;
51270;SDS011;37744;50.960;4.136;2023-04-25T13:11:10;5.20;;;1.40;;
51270;SDS011;37744;50.960;4.136;2023-04-25T13:13:36;10.32;;;1.98;;
51270;SDS011;37744;50.960;4.136;2023-04-25T13:16:03;6.43;;;1.50;;
51270;SDS011;37744;50.960;4.136;2023-04-25T13:18:29;4.65;;;1.20;;
51270;SDS011;37744;50.960;4.136;2023-04-25T13:20:54;6.18;;;1.13;;
51270;SDS011;37744;50.960;4.136;2023-04-25T13:23:20;5.90;;;1.40;;
51270;SDS011;37744;50.960;4.136;2023-04-25T13:25:45;5.70;;;1.23;;
51270;SDS011;37744;50.960;4.136;2023-04-25T13:28:11;4.80;;;1.55;;
51270;SDS011;37744;50.960;4.136;2023-04-25T13:30:36;5.43;;;1.60;;
51270;SDS011;37744;50.960;4.136;2023-04-25T13:33:02;6.68;;;1.35;;
51270;SDS011;37744;50.960;4.136;2023-04-25T13:35:29;3.05;;;0.98;;
51270;SDS011;37744;50.960;4.136;2023-04-25T13:37:54;3.55;;;1.30;;
51270;SDS011;37744;50.960;4.136;2023-04-25T13:40:20;6.80;;;1.38;;
51270;SDS011;37744;50.960;4.136;2023-04-25T13:42:46;4.68;;;1.10;;
51270;SDS011;37744;50.960;4.136;2023-04-25T13:45:11;7.13;;;1.27;;
51270;SDS011;37744;50.960;4.136;2023-04-25T13:47:36;5.18;;;1.63;;
51270;SDS011;37744;50.960;4.136;2023-04-25T13:50:02;4.85;;;1.30;;
51270;SDS011;37744;50.960;4.136;2023-04-25T13:52:28;6.60;;;1.30;;
51270;SDS011;37744;50.960;4.136;2023-04-25T13:54:54;4.25;;;1.10;;
51270;SDS011;37744;50.960;4.136;2023-04-25T13:57:19;7.03;;;1.50;;
51270;SDS011;37744;50.960;4.136;2023-04-25T13:59:44;5.97;;;1.40;;
51270;SDS011;37744;50.960;4.136;2023-04-25T14:02:11;6.18;;;1.40;;
51270;SDS011;37744;50.960;4.136;2023-04-25T14:04:37;6.80;;;1.48;;
51270;SDS011;37744;50.960;4.136;2023-04-25T14:07:02;5.90;;;1.27;;
51270;SDS011;37744;50.960;4.136;2023-04-25T14:09:28;5.40;;;1.17;;
51270;SDS011;37744;50.960;4.136;2023-04-25T14:11:53;3.47;;;1.10;;
51270;SDS011;37744;50.960;4.136;2023-04-25T14:14:19;3.25;;;1.20;;
51270;SDS011;37744;50.960;4.136;2023-04-25T14:16:45;5.40;;;1.58;;
51270;SDS011;37744;50.960;4.136;2023-04-25T14:19:11;5.97;;;1.23;;
51270;SDS011;37744;50.960;4.136;2023-04-25T14:21:36;6.82;;;1.30;;
51270;SDS011;37744;50.960;4.136;2023-04-25T14:24:01;4.50;;;1.05;;
51270;SDS011;37744;50.960;4.136;2023-04-25T14:26:27;5.43;;;1.20;;
51270;SDS011;37744;50.960;4.136;2023-04-25T14:28:52;10.02;;;1.20;;
51270;SDS011;37744;50.960;4.136;2023-04-25T14:31:17;3.65;;;1.10;;
51270;SDS011;37744;50.960;4.136;2023-04-25T14:33:46;4.70;;;1.30;;
51270;SDS011;37744;50.960;4.136;2023-04-25T14:36:12;4.45;;;0.85;;
51270;SDS011;37744;50.960;4.136;2023-04-25T14:38:38;4.07;;;1.20;;